CheckWX is a tool to help pilots better visualize weather data.  It is not intended as a substitute for an official pre-flight weather briefing.

10:29:53 UTC

KGUC METAR
Gunnison-Crested Butte Regional Airport
Gunnison, Colorado, USA
Current

34 mins ago

KGUC 310956Z AUTO 29005KT 10SM OVC090 10/08 A3037 RMK AO2 SLP211 T01000078
Observed
May-31 @ 09:56 UTC
Wind
  • 290° at 5 KTS
Visibility
Flight Rules
VFR
Cloud Levels
  • Overcast at 9,000' AGL
Temperature
10°C / 50°F
Dewpoint
C / 46°F
Humidity
88%
Altimeter
30.37" Hg
Pressure
1028.42 hPa
Previous

2 hours ago

KGUC 310856Z AUTO 32004KT 10SM SCT100 11/08 A3035 RMK AO2 SLP199 T01060083 55004
Observed
May-31 @ 08:56 UTC
Wind
  • 320° at 4 KTS
Visibility
Flight Rules
VFR
Cloud Levels
  • Scattered at 10,000' AGL
Temperature
11°C / 52°F
Dewpoint
C / 46°F
Humidity
82%
Altimeter
30.35" Hg
Pressure
1027.82 hPa
Previous

3 hours ago

KGUC 310756Z AUTO VRB03KT 10SM CLR 12/09 A3035 RMK AO2 SLP194 T01170089
Observed
May-31 @ 07:56 UTC
Wind
  • Variable at 3 KTS
Visibility
Flight Rules
VFR
Cloud Levels
  • Clear skies
Temperature
12°C / 54°F
Dewpoint
C / 48°F
Humidity
82%
Altimeter
30.35" Hg
Pressure
1027.82 hPa